PROFILE

 METAR AND TAF INFORMATION
ADDS - METARS form results

(0203 UTC 20 February 2020)
http://aviationweather.gov/metar/data/
 
TAF GVAC 191700Z 1918/2024 05018KT 8000 NSC 

 AIRPORT MAP

 RUNWAY INFORMATION
Runway 01 Runway length 10735 ft Runway width 148 ft
Runway elevation 176 ft Runway displaced threshold 885 ft Runway heading 358
Runway 19 Runway length 10735 ft Runway width 148 ft
Runway elevation 170 ft Runway displaced threshold 0 ft Runway heading 178
Runway 07 Runway length 4921 ft Runway width 148 ft
Runway elevation 177 ft Runway displaced threshold 0 ft Runway heading 58
Runway 25 Runway length 4921 ft Runway width 148 ft
Runway elevation 177 ft Runway displaced threshold 0 ft Runway heading 238

 AIRPORT FREQUENCIES
Type A/G Name A/G Frequency 345.2 MHZ
Type APP Name SAL APP Frequency 119.7 MHZ
Type TWR Name TWR Frequency 119.7 MHZ

 AIRPORT NEAR NAVIGATION AIDS
Type VOR-DME Name Sal Frequency 115300 KHZ
Type NDB Name Sal Frequency 274 KHZ